sensor_id;sensor_type;location;lat;lon;timestamp;pressure;altitude;pressure_sealevel;temperature
71463;BMP180;59266;52.608;13.260;2022-09-09T00:01:54;100621.00;;;14.50
71463;BMP180;59266;52.608;13.260;2022-09-09T00:04:25;100625.00;;;14.50
71463;BMP180;59266;52.608;13.260;2022-09-09T00:07:32;100627.00;;;14.40
71463;BMP180;59266;52.608;13.260;2022-09-09T00:10:29;100621.00;;;14.50
71463;BMP180;59266;52.608;13.260;2022-09-09T00:13:05;100623.00;;;14.50
71463;BMP180;59266;52.608;13.260;2022-09-09T00:15:41;100616.00;;;14.50
71463;BMP180;59266;52.608;13.260;2022-09-09T00:18:28;100619.00;;;14.40
71463;BMP180;59266;52.608;13.260;2022-09-09T00:21:06;100622.00;;;14.40
71463;BMP180;59266;52.608;13.260;2022-09-09T00:23:37;100623.00;;;14.40
71463;BMP180;59266;52.608;13.260;2022-09-09T00:26:32;100624.00;;;14.30
71463;BMP180;59266;52.608;13.260;2022-09-09T00:31:34;100620.00;;;14.30
71463;BMP180;59266;52.608;13.260;2022-09-09T00:34:13;100618.00;;;14.20
71463;BMP180;59266;52.608;13.260;2022-09-09T00:36:41;100610.00;;;14.20
71463;BMP180;59266;52.608;13.260;2022-09-09T00:44:33;100619.00;;;14.10
71463;BMP180;59266;52.608;13.260;2022-09-09T00:47:09;100613.00;;;14.10
71463;BMP180;59266;52.608;13.260;2022-09-09T00:50:00;100620.00;;;14.00
71463;BMP180;59266;52.608;13.260;2022-09-09T00:52:58;100607.00;;;14.00
71463;BMP180;59266;52.608;13.260;2022-09-09T00:58:17;100611.00;;;14.00
71463;BMP180;59266;52.608;13.260;2022-09-09T01:00:47;100611.00;;;13.90
71463;BMP180;59266;52.608;13.260;2022-09-09T01:03:22;100617.00;;;13.90
71463;BMP180;59266;52.608;13.260;2022-09-09T01:06:10;100621.00;;;13.80
71463;BMP180;59266;52.608;13.260;2022-09-09T01:11:42;100620.00;;;13.80
71463;BMP180;59266;52.608;13.260;2022-09-09T01:14:16;100619.00;;;13.80
71463;BMP180;59266;52.608;13.260;2022-09-09T01:16:47;100615.00;;;13.70
71463;BMP180;59266;52.608;13.260;2022-09-09T01:19:24;100618.00;;;13.70
71463;BMP180;59266;52.608;13.260;2022-09-09T01:22:09;100621.00;;;13.70
71463;BMP180;59266;52.608;13.260;2022-09-09T01:25:01;100621.00;;;13.60
71463;BMP180;59266;52.608;13.260;2022-09-09T01:27:33;100623.00;;;13.70
71463;BMP180;59266;52.608;13.260;2022-09-09T01:30:01;100615.00;;;13.70
71463;BMP180;59266;52.608;13.260;2022-09-09T01:32:39;100615.00;;;13.50
71463;BMP180;59266;52.608;13.260;2022-09-09T01:35:07;100617.00;;;13.60
71463;BMP180;59266;52.608;13.260;2022-09-09T01:37:37;100629.00;;;13.60
71463;BMP180;59266;52.608;13.260;2022-09-09T01:40:06;100612.00;;;13.50
71463;BMP180;59266;52.608;13.260;2022-09-09T01:42:33;100622.00;;;13.50
71463;BMP180;59266;52.608;13.260;2022-09-09T01:45:00;100613.00;;;13.50
71463;BMP180;59266;52.608;13.260;2022-09-09T01:47:26;100613.00;;;13.60
71463;BMP180;59266;52.608;13.260;2022-09-09T01:49:53;100624.00;;;13.50
71463;BMP180;59266;52.608;13.260;2022-09-09T01:52:19;100627.00;;;13.50
71463;BMP180;59266;52.608;13.260;2022-09-09T01:54:48;100625.00;;;13.50
71463;BMP180;59266;52.608;13.260;2022-09-09T01:57:34;100622.00;;;13.40
71463;BMP180;59266;52.608;13.260;2022-09-09T02:00:11;100624.00;;;13.40
71463;BMP180;59266;52.608;13.260;2022-09-09T02:08:00;100617.00;;;13.40
71463;BMP180;59266;52.608;13.260;2022-09-09T02:10:34;100621.00;;;13.40
71463;BMP180;59266;52.608;13.260;2022-09-09T02:13:08;100621.00;;;13.40
71463;BMP180;59266;52.608;13.260;2022-09-09T02:18:26;100629.00;;;13.40
71463;BMP180;59266;52.608;13.260;2022-09-09T02:20:55;100622.00;;;13.30
71463;BMP180;59266;52.608;13.260;2022-09-09T02:23:22;100625.00;;;13.30
71463;BMP180;59266;52.608;13.260;2022-09-09T02:25:51;100631.00;;;13.30
71463;BMP180;59266;52.608;13.260;2022-09-09T02:28:21;100633.00;;;13.30
71463;BMP180;59266;52.608;13.260;2022-09-09T02:30:49;100640.00;;;13.20
71463;BMP180;59266;52.608;13.260;2022-09-09T02:33:25;100632.00;;;13.30
71463;BMP180;59266;52.608;13.260;2022-09-09T02:35:54;100634.00;;;13.20
71463;BMP180;59266;52.608;13.260;2022-09-09T02:38:26;100632.00;;;13.20
71463;BMP180;59266;52.608;13.260;2022-09-09T02:40:54;100625.00;;;13.20
71463;BMP180;59266;52.608;13.260;2022-09-09T02:43:21;100631.00;;;13.20
71463;BMP180;59266;52.608;13.260;2022-09-09T02:45:59;100630.00;;;13.20
71463;BMP180;59266;52.608;13.260;2022-09-09T02:48:36;100627.00;;;13.20
71463;BMP180;59266;52.608;13.260;2022-09-09T02:51:08;100632.00;;;13.30
71463;BMP180;59266;52.608;13.260;2022-09-09T02:53:48;100638.00;;;13.20
71463;BMP180;59266;52.608;13.260;2022-09-09T02:56:17;100628.00;;;13.20
71463;BMP180;59266;52.608;13.260;2022-09-09T02:58:46;100627.00;;;13.20
71463;BMP180;59266;52.608;13.260;2022-09-09T03:01:13;100629.00;;;13.20
71463;BMP180;59266;52.608;13.260;2022-09-09T03:03:40;100630.00;;;13.30
71463;BMP180;59266;52.608;13.260;2022-09-09T03:06:08;100626.00;;;13.20
71463;BMP180;59266;52.608;13.260;2022-09-09T03:08:36;100633.00;;;13.20
71463;BMP180;59266;52.608;13.260;2022-09-09T03:11:03;100636.00;;;13.20
71463;BMP180;59266;52.608;13.260;2022-09-09T03:13:30;100638.00;;;13.20
71463;BMP180;59266;52.608;13.260;2022-09-09T03:15:56;100639.00;;;13.20
71463;BMP180;59266;52.608;13.260;2022-09-09T03:18:23;100629.00;;;13.20
71463;BMP180;59266;52.608;13.260;2022-09-09T03:20:49;100633.00;;;13.10
71463;BMP180;59266;52.608;13.260;2022-09-09T03:23:17;100638.00;;;13.00
71463;BMP180;59266;52.608;13.260;2022-09-09T03:25:48;100645.00;;;13.00
71463;BMP180;59266;52.608;13.260;2022-09-09T03:28:15;100645.00;;;13.00
71463;BMP180;59266;52.608;13.260;2022-09-09T03:30:43;100641.00;;;13.00
71463;BMP180;59266;52.608;13.260;2022-09-09T03:33:09;100638.00;;;12.90
71463;BMP180;59266;52.608;13.260;2022-09-09T03:35:36;100637.00;;;12.90
71463;BMP180;59266;52.608;13.260;2022-09-09T03:38:02;100655.00;;;12.70
71463;BMP180;59266;52.608;13.260;2022-09-09T03:40:29;100646.00;;;12.80
71463;BMP180;59266;52.608;13.260;2022-09-09T03:42:55;100643.00;;;12.80
71463;BMP180;59266;52.608;13.260;2022-09-09T03:45:22;100647.00;;;12.90
71463;BMP180;59266;52.608;13.260;2022-09-09T03:47:48;100643.00;;;12.90
71463;BMP180;59266;52.608;13.260;2022-09-09T03:50:16;100652.00;;;12.80
71463;BMP180;59266;52.608;13.260;2022-09-09T03:52:44;100653.00;;;12.90
71463;BMP180;59266;52.608;13.260;2022-09-09T03:55:11;100656.00;;;12.80
71463;BMP180;59266;52.608;13.260;2022-09-09T03:57:37;100666.00;;;12.80
71463;BMP180;59266;52.608;13.260;2022-09-09T04:00:05;100650.00;;;12.80
71463;BMP180;59266;52.608;13.260;2022-09-09T04:02:33;100655.00;;;12.80
71463;BMP180;59266;52.608;13.260;2022-09-09T04:04:59;100648.00;;;12.70
71463;BMP180;59266;52.608;13.260;2022-09-09T04:07:26;100647.00;;;12.80
71463;BMP180;59266;52.608;13.260;2022-09-09T04:09:53;100658.00;;;12.80
71463;BMP180;59266;52.608;13.260;2022-09-09T04:12:20;100653.00;;;12.80
71463;BMP180;59266;52.608;13.260;2022-09-09T04:14:48;100653.00;;;12.70
71463;BMP180;59266;52.608;13.260;2022-09-09T04:17:15;100646.00;;;12.70
71463;BMP180;59266;52.608;13.260;2022-09-09T04:19:42;100644.00;;;12.60
71463;BMP180;59266;52.608;13.260;2022-09-09T04:22:08;100651.00;;;12.70
71463;BMP180;59266;52.608;13.260;2022-09-09T04:24:35;100655.00;;;12.70
71463;BMP180;59266;52.608;13.260;2022-09-09T04:27:02;100648.00;;;12.70
71463;BMP180;59266;52.608;13.260;2022-09-09T04:29:28;100655.00;;;12.70
71463;BMP180;59266;52.608;13.260;2022-09-09T04:31:55;100655.00;;;12.70
71463;BMP180;59266;52.608;13.260;2022-09-09T04:34:21;100655.00;;;12.70
71463;BMP180;59266;52.608;13.260;2022-09-09T04:36:48;100650.00;;;12.60
71463;BMP180;59266;52.608;13.260;2022-09-09T04:39:14;100651.00;;;12.70
71463;BMP180;59266;52.608;13.260;2022-09-09T04:41:41;100659.00;;;12.60
71463;BMP180;59266;52.608;13.260;2022-09-09T04:44:07;100668.00;;;12.70
71463;BMP180;59266;52.608;13.260;2022-09-09T04:46:34;100659.00;;;12.70
71463;BMP180;59266;52.608;13.260;2022-09-09T04:49:00;100666.00;;;12.70
71463;BMP180;59266;52.608;13.260;2022-09-09T04:51:27;100673.00;;;12.70
71463;BMP180;59266;52.608;13.260;2022-09-09T04:53:54;100668.00;;;12.70
71463;BMP180;59266;52.608;13.260;2022-09-09T04:56:21;100673.00;;;12.70
71463;BMP180;59266;52.608;13.260;2022-09-09T04:58:47;100675.00;;;12.70
71463;BMP180;59266;52.608;13.260;2022-09-09T05:01:17;100677.00;;;12.70
71463;BMP180;59266;52.608;13.260;2022-09-09T05:03:45;100677.00;;;12.80
71463;BMP180;59266;52.608;13.260;2022-09-09T05:06:14;100683.00;;;12.80
71463;BMP180;59266;52.608;13.260;2022-09-09T05:08:42;100681.00;;;13.00
71463;BMP180;59266;52.608;13.260;2022-09-09T05:13:51;100684.00;;;13.10
71463;BMP180;59266;52.608;13.260;2022-09-09T05:16:18;100675.00;;;13.20
71463;BMP180;59266;52.608;13.260;2022-09-09T05:18:45;100682.00;;;13.20
71463;BMP180;59266;52.608;13.260;2022-09-09T05:21:17;100675.00;;;13.20
71463;BMP180;59266;52.608;13.260;2022-09-09T05:23:45;100680.00;;;13.30
71463;BMP180;59266;52.608;13.260;2022-09-09T05:26:13;100675.00;;;13.40
71463;BMP180;59266;52.608;13.260;2022-09-09T05:28:43;100671.00;;;13.40
71463;BMP180;59266;52.608;13.260;2022-09-09T05:31:10;100678.00;;;13.50
71463;BMP180;59266;52.608;13.260;2022-09-09T05:33:42;100676.00;;;13.60
71463;BMP180;59266;52.608;13.260;2022-09-09T05:36:12;100683.00;;;13.60
71463;BMP180;59266;52.608;13.260;2022-09-09T05:38:43;100675.00;;;13.70
71463;BMP180;59266;52.608;13.260;2022-09-09T05:41:10;100675.00;;;13.70
71463;BMP180;59266;52.608;13.260;2022-09-09T05:43:38;100675.00;;;13.70
71463;BMP180;59266;52.608;13.260;2022-09-09T05:46:19;100661.00;;;13.80
71463;BMP180;59266;52.608;13.260;2022-09-09T05:48:47;100674.00;;;13.90
71463;BMP180;59266;52.608;13.260;2022-09-09T05:51:17;100673.00;;;13.90
71463;BMP180;59266;52.608;13.260;2022-09-09T05:53:45;100679.00;;;13.90
71463;BMP180;59266;52.608;13.260;2022-09-09T05:58:41;100684.00;;;14.10
71463;BMP180;59266;52.608;13.260;2022-09-09T06:01:13;100681.00;;;14.10
71463;BMP180;59266;52.608;13.260;2022-09-09T06:03:41;100683.00;;;14.10
71463;BMP180;59266;52.608;13.260;2022-09-09T06:06:10;100680.00;;;14.20
71463;BMP180;59266;52.608;13.260;2022-09-09T06:08:39;100681.00;;;14.20
71463;BMP180;59266;52.608;13.260;2022-09-09T06:11:11;100679.00;;;14.30
71463;BMP180;59266;52.608;13.260;2022-09-09T06:13:38;100635.00;;;14.40
71463;BMP180;59266;52.608;13.260;2022-09-09T06:16:08;100323.00;;;15.20
71463;BMP180;59266;52.608;13.260;2022-09-09T06:18:35;100098.00;;;17.40
71463;BMP180;59266;52.608;13.260;2022-09-09T06:21:04;100115.00;;;19.40
71463;BMP180;59266;52.608;13.260;2022-09-09T06:23:33;100049.00;;;20.80
71463;BMP180;59266;52.608;13.260;2022-09-09T06:28:28;99971.00;;;24.60
71463;BMP180;59266;52.608;13.260;2022-09-09T06:30:59;100565.00;;;25.60
71463;BMP180;59266;52.608;13.260;2022-09-09T06:33:30;100606.00;;;23.40
71463;BMP180;59266;52.608;13.260;2022-09-09T06:35:56;100528.00;;;22.20
71463;BMP180;59266;52.608;13.260;2022-09-09T06:38:23;100635.00;;;22.00
71463;BMP180;59266;52.608;13.260;2022-09-09T06:40:53;100700.00;;;21.20
71463;BMP180;59266;52.608;13.260;2022-09-09T06:43:25;100705.00;;;20.70
71463;BMP180;59266;52.608;13.260;2022-09-09T06:45:56;100687.00;;;20.70
71463;BMP180;59266;52.608;13.260;2022-09-09T06:48:22;100702.00;;;20.70
71463;BMP180;59266;52.608;13.260;2022-09-09T06:50:49;100703.00;;;20.80
71463;BMP180;59266;52.608;13.260;2022-09-09T06:53:17;100713.00;;;21.10
71463;BMP180;59266;52.608;13.260;2022-09-09T06:55:45;100717.00;;;21.10
71463;BMP180;59266;52.608;13.260;2022-09-09T06:58:12;100698.00;;;21.80
71463;BMP180;59266;52.608;13.260;2022-09-09T07:00:38;100712.00;;;22.20
71463;BMP180;59266;52.608;13.260;2022-09-09T07:03:05;100716.00;;;22.90
71463;BMP180;59266;52.608;13.260;2022-09-09T07:05:32;100715.00;;;23.20
71463;BMP180;59266;52.608;13.260;2022-09-09T07:07:58;100701.00;;;22.90
71463;BMP180;59266;52.608;13.260;2022-09-09T07:10:25;100690.00;;;26.50
71463;BMP180;59266;52.608;13.260;2022-09-09T07:12:52;100695.00;;;28.90
71463;BMP180;59266;52.608;13.260;2022-09-09T07:15:19;100702.00;;;31.10
71463;BMP180;59266;52.608;13.260;2022-09-09T07:17:45;100711.00;;;32.70
71463;BMP180;59266;52.608;13.260;2022-09-09T07:20:13;100723.00;;;29.90
71463;BMP180;59266;52.608;13.260;2022-09-09T07:22:41;100727.00;;;27.30
71463;BMP180;59266;52.608;13.260;2022-09-09T07:25:07;100717.00;;;27.70
71463;BMP180;59266;52.608;13.260;2022-09-09T07:27:34;100713.00;;;28.50
71463;BMP180;59266;52.608;13.260;2022-09-09T07:30:00;100701.00;;;32.60
71463;BMP180;59266;52.608;13.260;2022-09-09T07:32:28;100708.00;;;32.60
71463;BMP180;59266;52.608;13.260;2022-09-09T07:34:56;100724.00;;;32.70
71463;BMP180;59266;52.608;13.260;2022-09-09T07:37:24;100726.00;;;30.80
71463;BMP180;59266;52.608;13.260;2022-09-09T07:39:50;100726.00;;;28.70
71463;BMP180;59266;52.608;13.260;2022-09-09T07:42:17;100720.00;;;28.50
71463;BMP180;59266;52.608;13.260;2022-09-09T07:44:44;100729.00;;;29.10
71463;BMP180;59266;52.608;13.260;2022-09-09T07:47:10;100740.00;;;27.70
71463;BMP180;59266;52.608;13.260;2022-09-09T07:49:37;100736.00;;;27.00
71463;BMP180;59266;52.608;13.260;2022-09-09T07:52:04;100742.00;;;27.50
71463;BMP180;59266;52.608;13.260;2022-09-09T07:54:30;100747.00;;;26.90
71463;BMP180;59266;52.608;13.260;2022-09-09T07:56:58;100745.00;;;26.90
71463;BMP180;59266;52.608;13.260;2022-09-09T07:59:25;100744.00;;;26.50
71463;BMP180;59266;52.608;13.260;2022-09-09T08:01:52;100738.00;;;27.40
71463;BMP180;59266;52.608;13.260;2022-09-09T08:04:22;100753.00;;;27.00
71463;BMP180;59266;52.608;13.260;2022-09-09T08:06:55;100737.00;;;27.60
71463;BMP180;59266;52.608;13.260;2022-09-09T08:09:23;100727.00;;;29.00
71463;BMP180;59266;52.608;13.260;2022-09-09T08:11:56;100754.00;;;30.30
71463;BMP180;59266;52.608;13.260;2022-09-09T08:14:23;100745.00;;;31.10
71463;BMP180;59266;52.608;13.260;2022-09-09T08:16:50;100733.00;;;31.40
71463;BMP180;59266;52.608;13.260;2022-09-09T08:19:20;100746.00;;;33.10
71463;BMP180;59266;52.608;13.260;2022-09-09T08:21:46;100731.00;;;35.40
71463;BMP180;59266;52.608;13.260;2022-09-09T08:24:15;100748.00;;;35.30
71463;BMP180;59266;52.608;13.260;2022-09-09T08:26:44;100743.00;;;36.20
71463;BMP180;59266;52.608;13.260;2022-09-09T08:29:12;100756.00;;;37.10
71463;BMP180;59266;52.608;13.260;2022-09-09T08:31:44;100739.00;;;38.90
71463;BMP180;59266;52.608;13.260;2022-09-09T08:34:11;100754.00;;;37.10
71463;BMP180;59266;52.608;13.260;2022-09-09T08:36:40;100744.00;;;38.80
71463;BMP180;59266;52.608;13.260;2022-09-09T08:39:09;100749.00;;;37.30
71463;BMP180;59266;52.608;13.260;2022-09-09T08:41:56;100753.00;;;38.60
71463;BMP180;59266;52.608;13.260;2022-09-09T08:52:45;100779.00;;;35.30
71463;BMP180;59266;52.608;13.260;2022-09-09T08:55:50;100783.00;;;32.60
71463;BMP180;59266;52.608;13.260;2022-09-09T08:58:19;100790.00;;;31.40
71463;BMP180;59266;52.608;13.260;2022-09-09T09:00:57;100786.00;;;29.80
71463;BMP180;59266;52.608;13.260;2022-09-09T09:03:33;100789.00;;;29.90
71463;BMP180;59266;52.608;13.260;2022-09-09T09:06:13;100788.00;;;29.80
71463;BMP180;59266;52.608;13.260;2022-09-09T09:09:01;100786.00;;;28.60
71463;BMP180;59266;52.608;13.260;2022-09-09T09:11:40;100778.00;;;27.70
71463;BMP180;59266;52.608;13.260;2022-09-09T09:14:19;100781.00;;;27.20
71463;BMP180;59266;52.608;13.260;2022-09-09T09:17:00;100784.00;;;27.70
71463;BMP180;59266;52.608;13.260;2022-09-09T09:19:28;100784.00;;;27.20
71463;BMP180;59266;52.608;13.260;2022-09-09T09:22:01;100783.00;;;26.30
71463;BMP180;59266;52.608;13.260;2022-09-09T09:24:53;100793.00;;;26.80
71463;BMP180;59266;52.608;13.260;2022-09-09T09:30:34;100784.00;;;27.50
71463;BMP180;59266;52.608;13.260;2022-09-09T09:35:52;100769.00;;;29.70
71463;BMP180;59266;52.608;13.260;2022-09-09T09:38:22;100767.00;;;30.50
71463;BMP180;59266;52.608;13.260;2022-09-09T09:41:09;100764.00;;;33.80
71463;BMP180;59266;52.608;13.260;2022-09-09T09:43:37;100767.00;;;34.50
71463;BMP180;59266;52.608;13.260;2022-09-09T09:46:19;100773.00;;;32.90
71463;BMP180;59266;52.608;13.260;2022-09-09T09:49:00;100779.00;;;32.50
71463;BMP180;59266;52.608;13.260;2022-09-09T09:51:28;100770.00;;;31.70
71463;BMP180;59266;52.608;13.260;2022-09-09T09:54:14;100769.00;;;34.70
71463;BMP180;59266;52.608;13.260;2022-09-09T09:56:43;100784.00;;;33.60
71463;BMP180;59266;52.608;13.260;2022-09-09T10:02:20;100767.00;;;35.70
71463;BMP180;59266;52.608;13.260;2022-09-09T10:05:00;100766.00;;;36.00
71463;BMP180;59266;52.608;13.260;2022-09-09T10:07:27;100773.00;;;36.50
71463;BMP180;59266;52.608;13.260;2022-09-09T10:09:57;100766.00;;;37.40
71463;BMP180;59266;52.608;13.260;2022-09-09T10:13:02;100774.00;;;37.40
71463;BMP180;59266;52.608;13.260;2022-09-09T10:15:51;100796.00;;;35.50
71463;BMP180;59266;52.608;13.260;2022-09-09T10:18:39;100788.00;;;33.30
71463;BMP180;59266;52.608;13.260;2022-09-09T10:21:23;100773.00;;;35.10
71463;BMP180;59266;52.608;13.260;2022-09-09T10:24:36;100777.00;;;34.30
71463;BMP180;59266;52.608;13.260;2022-09-09T10:27:32;100783.00;;;34.80
71463;BMP180;59266;52.608;13.260;2022-09-09T10:30:16;100775.00;;;32.50
71463;BMP180;59266;52.608;13.260;2022-09-09T10:33:09;100769.00;;;33.80
71463;BMP180;59266;52.608;13.260;2022-09-09T10:36:08;100779.00;;;36.20
71463;BMP180;59266;52.608;13.260;2022-09-09T10:38:40;100789.00;;;33.70
71463;BMP180;59266;52.608;13.260;2022-09-09T10:41:18;100780.00;;;34.40
71463;BMP180;59266;52.608;13.260;2022-09-09T10:44:07;100785.00;;;35.90
71463;BMP180;59266;52.608;13.260;2022-09-09T10:46:59;100782.00;;;35.10
71463;BMP180;59266;52.608;13.260;2022-09-09T10:50:03;100782.00;;;32.70
71463;BMP180;59266;52.608;13.260;2022-09-09T10:55:21;100775.00;;;35.20
71463;BMP180;59266;52.608;13.260;2022-09-09T10:57:58;100769.00;;;35.60
71463;BMP180;59266;52.608;13.260;2022-09-09T11:00:31;100783.00;;;35.30
71463;BMP180;59266;52.608;13.260;2022-09-09T11:03:03;100785.00;;;35.60
71463;BMP180;59266;52.608;13.260;2022-09-09T11:08:23;100775.00;;;33.10
71463;BMP180;59266;52.608;13.260;2022-09-09T11:10:58;100774.00;;;32.30
71463;BMP180;59266;52.608;13.260;2022-09-09T11:13:37;100781.00;;;32.40
71463;BMP180;59266;52.608;13.260;2022-09-09T11:19:30;100768.00;;;30.80
71463;BMP180;59266;52.608;13.260;2022-09-09T11:22:08;100772.00;;;32.30
71463;BMP180;59266;52.608;13.260;2022-09-09T11:24:48;100769.00;;;30.90
71463;BMP180;59266;52.608;13.260;2022-09-09T11:27:30;100779.00;;;31.00
71463;BMP180;59266;52.608;13.260;2022-09-09T11:36:35;100768.00;;;31.30
71463;BMP180;59266;52.608;13.260;2022-09-09T11:39:41;100771.00;;;31.60
71463;BMP180;59266;52.608;13.260;2022-09-09T11:44:40;100766.00;;;31.60
71463;BMP180;59266;52.608;13.260;2022-09-09T11:47:21;100761.00;;;30.40
71463;BMP180;59266;52.608;13.260;2022-09-09T11:49:51;100766.00;;;31.30
71463;BMP180;59266;52.608;13.260;2022-09-09T11:52:25;100762.00;;;29.40
71463;BMP180;59266;52.608;13.260;2022-09-09T11:55:09;100770.00;;;29.50
71463;BMP180;59266;52.608;13.260;2022-09-09T11:57:38;100757.00;;;29.90
71463;BMP180;59266;52.608;13.260;2022-09-09T12:00:05;100748.00;;;29.40
71463;BMP180;59266;52.608;13.260;2022-09-09T12:02:32;100758.00;;;30.40
71463;BMP180;59266;52.608;13.260;2022-09-09T12:05:06;100748.00;;;29.40
71463;BMP180;59266;52.608;13.260;2022-09-09T12:07:48;100770.00;;;28.30
71463;BMP180;59266;52.608;13.260;2022-09-09T12:10:53;100733.00;;;28.00
71463;BMP180;59266;52.608;13.260;2022-09-09T12:13:22;100738.00;;;28.80
71463;BMP180;59266;52.608;13.260;2022-09-09T12:15:51;100737.00;;;30.40
71463;BMP180;59266;52.608;13.260;2022-09-09T12:20:59;100729.00;;;29.70
71463;BMP180;59266;52.608;13.260;2022-09-09T12:23:49;100733.00;;;29.00
71463;BMP180;59266;52.608;13.260;2022-09-09T12:26:27;100757.00;;;29.20
71463;BMP180;59266;52.608;13.260;2022-09-09T12:29:28;100720.00;;;29.20
71463;BMP180;59266;52.608;13.260;2022-09-09T12:32:00;100717.00;;;30.10
71463;BMP180;59266;52.608;13.260;2022-09-09T12:34:39;100720.00;;;29.50
71463;BMP180;59266;52.608;13.260;2022-09-09T12:37:15;100742.00;;;29.20
71463;BMP180;59266;52.608;13.260;2022-09-09T12:39:49;100708.00;;;28.20
71463;BMP180;59266;52.608;13.260;2022-09-09T12:42:22;100709.00;;;29.00
71463;BMP180;59266;52.608;13.260;2022-09-09T12:44:52;100713.00;;;30.50
71463;BMP180;59266;52.608;13.260;2022-09-09T12:47:21;100717.00;;;30.40
71463;BMP180;59266;52.608;13.260;2022-09-09T12:49:55;100709.00;;;30.10
71463;BMP180;59266;52.608;13.260;2022-09-09T12:52:30;100702.00;;;30.40
71463;BMP180;59266;52.608;13.260;2022-09-09T12:55:00;100725.00;;;30.10
71463;BMP180;59266;52.608;13.260;2022-09-09T12:57:33;100737.00;;;28.80
71463;BMP180;59266;52.608;13.260;2022-09-09T13:00:06;100740.00;;;28.60
71463;BMP180;59266;52.608;13.260;2022-09-09T13:02:45;100744.00;;;28.40
71463;BMP180;59266;52.608;13.260;2022-09-09T13:05:15;100742.00;;;28.90
71463;BMP180;59266;52.608;13.260;2022-09-09T13:07:42;100743.00;;;28.30
71463;BMP180;59266;52.608;13.260;2022-09-09T13:10:14;100747.00;;;27.70
71463;BMP180;59266;52.608;13.260;2022-09-09T13:13:01;100752.00;;;27.90
71463;BMP180;59266;52.608;13.260;2022-09-09T13:15:29;100749.00;;;27.40
71463;BMP180;59266;52.608;13.260;2022-09-09T13:17:57;100742.00;;;27.50
71463;BMP180;59266;52.608;13.260;2022-09-09T13:20:27;100743.00;;;27.90
71463;BMP180;59266;52.608;13.260;2022-09-09T13:22:54;100746.00;;;27.70
71463;BMP180;59266;52.608;13.260;2022-09-09T13:25:27;100743.00;;;27.40
71463;BMP180;59266;52.608;13.260;2022-09-09T13:28:03;100741.00;;;27.10
71463;BMP180;59266;52.608;13.260;2022-09-09T13:30:35;100744.00;;;27.30
71463;BMP180;59266;52.608;13.260;2022-09-09T13:35:50;100722.00;;;27.60
71463;BMP180;59266;52.608;13.260;2022-09-09T13:38:17;100716.00;;;27.70
71463;BMP180;59266;52.608;13.260;2022-09-09T13:40:57;100726.00;;;27.10
71463;BMP180;59266;52.608;13.260;2022-09-09T13:43:26;100722.00;;;27.50
71463;BMP180;59266;52.608;13.260;2022-09-09T13:45:58;100724.00;;;27.00
71463;BMP180;59266;52.608;13.260;2022-09-09T13:48:25;100732.00;;;26.80
71463;BMP180;59266;52.608;13.260;2022-09-09T13:50:59;100726.00;;;26.60
71463;BMP180;59266;52.608;13.260;2022-09-09T13:53:26;100721.00;;;26.20
71463;BMP180;59266;52.608;13.260;2022-09-09T13:55:53;100729.00;;;26.90
71463;BMP180;59266;52.608;13.260;2022-09-09T13:58:20;100732.00;;;26.70
71463;BMP180;59266;52.608;13.260;2022-09-09T14:00:47;100733.00;;;27.10
71463;BMP180;59266;52.608;13.260;2022-09-09T14:03:14;100725.00;;;27.30
71463;BMP180;59266;52.608;13.260;2022-09-09T14:05:40;100724.00;;;27.40
71463;BMP180;59266;52.608;13.260;2022-09-09T14:08:15;100719.00;;;27.30
71463;BMP180;59266;52.608;13.260;2022-09-09T14:10:42;100712.00;;;27.30
71463;BMP180;59266;52.608;13.260;2022-09-09T14:13:08;100723.00;;;27.10
71463;BMP180;59266;52.608;13.260;2022-09-09T14:15:35;100722.00;;;26.60
71463;BMP180;59266;52.608;13.260;2022-09-09T14:18:01;100717.00;;;26.10
71463;BMP180;59266;52.608;13.260;2022-09-09T14:20:28;100705.00;;;25.80
71463;BMP180;59266;52.608;13.260;2022-09-09T14:22:54;100714.00;;;26.00
71463;BMP180;59266;52.608;13.260;2022-09-09T14:25:28;100709.00;;;26.20
71463;BMP180;59266;52.608;13.260;2022-09-09T14:27:55;100721.00;;;26.40
71463;BMP180;59266;52.608;13.260;2022-09-09T14:30:22;100702.00;;;27.10
71463;BMP180;59266;52.608;13.260;2022-09-09T14:32:48;100717.00;;;26.90
71463;BMP180;59266;52.608;13.260;2022-09-09T14:35:15;100727.00;;;26.80
71463;BMP180;59266;52.608;13.260;2022-09-09T14:37:44;100723.00;;;27.00
71463;BMP180;59266;52.608;13.260;2022-09-09T14:40:11;100731.00;;;27.30
71463;BMP180;59266;52.608;13.260;2022-09-09T14:42:37;100715.00;;;27.60
71463;BMP180;59266;52.608;13.260;2022-09-09T14:45:04;100700.00;;;28.20
71463;BMP180;59266;52.608;13.260;2022-09-09T14:47:31;100696.00;;;28.90
71463;BMP180;59266;52.608;13.260;2022-09-09T14:49:57;100693.00;;;29.20
71463;BMP180;59266;52.608;13.260;2022-09-09T14:52:23;100697.00;;;29.40
71463;BMP180;59266;52.608;13.260;2022-09-09T14:54:51;100703.00;;;29.50
71463;BMP180;59266;52.608;13.260;2022-09-09T14:57:17;100708.00;;;28.70
71463;BMP180;59266;52.608;13.260;2022-09-09T14:59:44;100716.00;;;28.00
71463;BMP180;59266;52.608;13.260;2022-09-09T15:02:11;100707.00;;;27.00
71463;BMP180;59266;52.608;13.260;2022-09-09T15:04:40;100707.00;;;27.40
71463;BMP180;59266;52.608;13.260;2022-09-09T15:07:06;100715.00;;;26.80
71463;BMP180;59266;52.608;13.260;2022-09-09T15:09:33;100699.00;;;26.90
71463;BMP180;59266;52.608;13.260;2022-09-09T15:12:00;100710.00;;;27.00
71463;BMP180;59266;52.608;13.260;2022-09-09T15:14:28;100707.00;;;27.10
71463;BMP180;59266;52.608;13.260;2022-09-09T15:16:54;100692.00;;;27.50
71463;BMP180;59266;52.608;13.260;2022-09-09T15:19:20;100699.00;;;27.20
71463;BMP180;59266;52.608;13.260;2022-09-09T15:21:47;100706.00;;;27.30